Time;durP1;ratioP1;P1;durP2;ratioP2;P2;SDS_P1;SDS_P2;PMS_P1;PMS_P2;Temp;Humidity;BMP_temperature;BMP_pressure;BME280_temperature;BME280_humidity;BME280_pressure;Samples;Min_cycle;Max_cycle;Signal;HPM_P1;HPM_P2
2023/09/15 00:01:57;;;;;;;;;7.00;7.00;;;;;21.62;44.77;101180.28;5059224;28;45325;-64
2023/09/15 00:04:22;;;;;;;;;7.25;7.25;;;;;21.59;45.27;101178.66;5059451;28;45287;-64
2023/09/15 00:06:48;;;;;;;;;6.75;6.50;;;;;21.57;45.66;101175.19;5058994;28;45909;-64
2023/09/15 00:09:15;;;;;;;;;7.00;7.00;;;;;21.55;45.60;101172.59;5064233;28;45339;-64
2023/09/15 00:11:40;;;;;;;;;8.00;6.75;;;;;21.54;45.29;101178.84;5057776;28;45248;-64
2023/09/15 00:14:11;;;;;;;;;7.25;7.25;;;;;21.52;45.46;101183.44;5057852;28;45419;-64
2023/09/15 00:16:41;;;;;;;;;7.00;6.00;;;;;21.52;45.78;101182.56;5058759;28;45332;-64
2023/09/15 00:19:13;;;;;;;;;8.25;7.25;;;;;21.49;45.31;101174.72;5059263;28;45311;-64
2023/09/15 00:21:38;;;;;;;;;6.00;6.00;;;;;21.47;45.49;101173.91;5061353;28;45239;-64
2023/09/15 00:24:05;;;;;;;;;9.00;6.00;;;;;21.47;45.69;101176.59;5062097;28;48863;-64
2023/09/15 00:26:32;;;;;;;;;5.00;5.00;;;;;21.44;45.62;101172.28;5062062;28;45405;-64
2023/09/15 00:29:04;;;;;;;;;6.50;5.00;;;;;21.39;45.39;101172.50;5062196;28;45553;-64
2023/09/15 00:31:29;;;;;;;;;6.25;6.25;;;;;21.40;45.28;101171.56;5062258;28;45224;-64
2023/09/15 00:33:55;;;;;;;;;6.00;6.00;;;;;21.38;45.87;101172.59;5062291;28;45244;-64
2023/09/15 00:36:20;;;;;;;;;8.00;6.00;;;;;21.36;45.66;101166.50;5060874;28;46023;-64
2023/09/15 00:38:45;;;;;;;;;5.25;4.75;;;;;21.32;45.84;101159.56;5062327;28;45364;-64
2023/09/15 00:41:12;;;;;;;;;6.75;6.75;;;;;21.32;45.39;101164.91;5062254;28;45300;-64
2023/09/15 00:43:38;;;;;;;;;5.50;5.50;;;;;21.32;45.63;101165.78;5062150;28;45477;-64
2023/09/15 00:46:03;;;;;;;;;8.50;5.00;;;;;21.26;45.54;101158.94;5061940;28;45939;-64
2023/09/15 00:48:29;;;;;;;;;5.75;5.75;;;;;21.29;45.26;101163.25;5061930;28;45375;-64
2023/09/15 00:50:55;;;;;;;;;5.50;5.50;;;;;21.27;45.51;101168.69;5062514;28;45295;-64
2023/09/15 00:53:22;;;;;;;;;5.25;5.00;;;;;21.25;45.75;101157.19;5061859;28;46455;-64
2023/09/15 00:55:51;;;;;;;;;7.00;4.00;;;;;21.22;45.90;101145.81;5061773;28;46162;-66
2023/09/15 00:58:18;;;;;;;;;5.25;3.00;;;;;21.21;45.54;101152.97;5061748;28;45411;-64
2023/09/15 01:00:44;;;;;;;;;6.00;6.00;;;;;21.20;46.00;101155.72;5061841;28;45365;-64
2023/09/15 01:03:17;;;;;;;;;6.25;6.25;;;;;21.19;45.58;101154.84;5061754;28;45382;-64
2023/09/15 01:05:43;;;;;;;;;5.75;5.50;;;;;21.19;45.75;101160.19;5061587;28;45939;-64
2023/09/15 01:08:09;;;;;;;;;5.50;5.25;;;;;21.17;45.84;101153.19;5082855;27;45336;-64
2023/09/15 01:10:35;;;;;;;;;5.50;5.50;;;;;21.17;45.58;101161.22;5061786;28;45377;-65
2023/09/15 01:13:00;;;;;;;;;9.00;6.75;;;;;21.11;45.93;101143.72;5061519;28;45316;-65
2023/09/15 01:15:39;;;;;;;;;5.00;4.50;;;;;21.14;45.85;101156.06;5061397;28;45448;-65
2023/09/15 01:18:41;;;;;;;;;8.00;4.25;;;;;21.13;45.58;101163.22;5061654;28;45157;-65
2023/09/15 01:21:18;;;;;;;;;5.50;5.00;;;;;21.11;45.85;101159.75;5061647;28;45208;-65
2023/09/15 01:24:02;;;;;;;;;7.50;6.00;;;;;21.09;45.70;101157.16;5061701;28;45457;-65
2023/09/15 01:26:43;;;;;;;;;6.50;6.00;;;;;21.08;45.77;101143.84;5060590;28;46501;-65
2023/09/15 01:29:14;;;;;;;;;6.25;6.00;;;;;21.05;45.90;101155.56;5061222;28;45562;-65
2023/09/15 01:31:42;;;;;;;;;6.25;6.25;;;;;21.05;46.20;101152.91;5060544;28;45217;-65
2023/09/15 01:34:08;;;;;;;;;6.00;5.00;;;;;21.01;46.06;101143.31;5061295;28;45323;-65
2023/09/15 01:36:33;;;;;;;;;7.25;6.25;;;;;21.01;46.10;101147.81;5061127;28;46379;-65
2023/09/15 01:38:58;;;;;;;;;5.00;5.00;;;;;20.98;46.10;101146.16;5060954;28;51399;-65
2023/09/15 01:41:24;;;;;;;;;6.00;6.00;;;;;21.01;46.22;101147.81;5061097;28;48705;-65
2023/09/15 01:43:51;;;;;;;;;6.75;6.75;;;;;20.94;46.30;101136.56;5060684;28;45327;-65
2023/09/15 01:46:17;;;;;;;;;8.25;6.75;;;;;20.97;46.32;101136.44;5060807;28;47219;-65
2023/09/15 01:48:43;;;;;;;;;6.50;6.50;;;;;20.92;46.14;101131.31;5060939;28;45173;-65
2023/09/15 01:51:09;;;;;;;;;7.25;5.25;;;;;20.94;45.76;101137.44;5061299;28;45185;-65
2023/09/15 01:53:36;;;;;;;;;6.50;6.00;;;;;20.92;45.93;101135.81;5060952;28;45451;-65
2023/09/15 01:56:01;;;;;;;;;6.00;6.00;;;;;20.91;45.84;101134.91;5060791;28;46343;-66
2023/09/15 01:58:27;;;;;;;;;7.00;6.00;;;;;20.86;45.92;101128.94;5060870;28;45335;-65
2023/09/15 02:00:52;;;;;;;;;6.75;6.75;;;;;20.86;46.35;101136.13;5060951;28;45259;-65
2023/09/15 02:03:17;;;;;;;;;10.50;7.75;;;;;20.85;45.92;101132.56;5059589;28;46501;-65
2023/09/15 02:05:43;;;;;;;;;6.25;6.25;;;;;20.84;46.40;101141.53;5060607;28;46251;-65
2023/09/15 02:08:09;;;;;;;;;6.25;6.00;;;;;20.85;46.15;101145.06;5064915;28;45252;-65
2023/09/15 02:10:34;;;;;;;;;5.75;5.75;;;;;20.78;46.08;101131.16;5060758;28;45314;-65
2023/09/15 02:12:59;;;;;;;;;7.25;6.50;;;;;20.78;45.89;101137.34;5060582;28;45349;-65
2023/09/15 02:15:25;;;;;;;;;6.25;5.00;;;;;20.80;46.17;101136.44;5060024;28;59811;-64
2023/09/15 02:17:53;;;;;;;;;6.00;6.00;;;;;20.76;46.62;101133.03;5060851;28;45468;-65
2023/09/15 02:20:19;;;;;;;;;8.50;6.00;;;;;20.75;45.91;101129.53;5061031;28;45150;-65
2023/09/15 02:22:45;;;;;;;;;6.25;6.25;;;;;20.74;45.95;101138.47;5060368;28;45185;-65
2023/09/15 02:25:10;;;;;;;;;7.00;7.00;;;;;20.75;46.63;101136.66;5076155;27;46969;-65
2023/09/15 02:27:37;;;;;;;;;6.75;5.75;;;;;20.74;46.46;101138.47;5060314;28;45189;-65
2023/09/15 02:30:03;;;;;;;;;5.25;5.25;;;;;20.69;46.37;101137.81;5060616;28;45313;-64
2023/09/15 02:32:29;;;;;;;;;6.75;5.25;;;;;20.70;46.55;101131.50;5060236;28;45581;-64
2023/09/15 02:34:54;;;;;;;;;4.25;4.25;;;;;20.69;46.19;101135.13;5060167;28;51438;-65
2023/09/15 02:37:19;;;;;;;;;7.25;7.25;;;;;20.67;46.44;101123.66;5060276;28;45311;-65
2023/09/15 02:39:45;;;;;;;;;3.75;3.75;;;;;20.68;46.21;101136.06;5060567;28;45958;-65
2023/09/15 02:42:12;;;;;;;;;8.75;7.50;;;;;20.65;46.15;101136.22;5059837;28;48616;-65
2023/09/15 02:44:37;;;;;;;;;6.00;6.00;;;;;20.63;46.57;101127.44;5058247;28;47077;-65
2023/09/15 02:47:03;;;;;;;;;7.00;6.00;;;;;20.63;46.43;101128.28;5060019;28;45160;-65
2023/09/15 02:49:28;;;;;;;;;5.00;5.00;;;;;20.63;46.24;101127.44;5059062;28;45324;-65
2023/09/15 02:51:53;;;;;;;;;8.00;6.50;;;;;20.63;46.28;101127.44;5060186;28;45154;-65
2023/09/15 02:54:19;;;;;;;;;6.00;6.00;;;;;20.61;46.51;101118.63;5060057;28;45283;-65
2023/09/15 02:56:44;;;;;;;;;7.25;7.25;;;;;20.59;46.06;101123.16;5059867;28;45227;-65
2023/09/15 02:59:10;;;;;;;;;11.50;6.50;;;;;20.57;46.58;101115.25;5060209;28;45245;-64
2023/09/15 03:01:36;;;;;;;;;6.00;5.75;;;;;20.58;46.22;101113.44;5059722;28;45483;-64
2023/09/15 03:04:03;;;;;;;;;7.50;6.75;;;;;20.57;46.24;101117.06;5058617;28;47485;-64
2023/09/15 03:06:28;;;;;;;;;6.50;5.50;;;;;20.57;46.78;101117.06;5059662;28;45422;-64
2023/09/15 03:08:54;;;;;;;;;4.75;4.75;;;;;20.55;46.52;101108.25;5064630;28;45426;-64
2023/09/15 03:11:19;;;;;;;;;7.50;6.00;;;;;20.56;46.88;101113.50;5059858;28;45305;-64
2023/09/15 03:13:45;;;;;;;;;7.00;6.25;;;;;20.56;46.84;101120.66;5059953;28;45888;-64
2023/09/15 03:16:14;;;;;;;;;7.75;7.00;;;;;20.54;46.95;101118.09;5059583;28;45327;-64
2023/09/15 03:18:39;;;;;;;;;6.75;6.75;;;;;20.54;47.09;101126.09;5059970;28;45302;-64
2023/09/15 03:21:05;;;;;;;;;5.50;5.50;;;;;20.50;46.45;101105.81;5059599;28;45419;-64
2023/09/15 03:23:31;;;;;;;;;6.00;3.75;;;;;20.54;46.89;101111.84;5059870;28;45220;-64
2023/09/15 03:26:00;;;;;;;;;7.00;7.00;;;;;20.52;46.63;101108.41;5059647;28;45265;-64
2023/09/15 03:28:25;;;;;;;;;6.00;6.00;;;;;20.51;46.66;101114.69;5060006;28;45331;-64
2023/09/15 03:30:50;;;;;;;;;6.50;6.00;;;;;20.52;46.71;101113.75;5043550;28;45418;-64
2023/09/15 03:33:16;;;;;;;;;9.00;7.75;;;;;20.49;46.57;101104.09;5037666;28;66642;-64
2023/09/15 03:35:41;;;;;;;;;3.50;3.50;;;;;20.49;47.17;101109.44;5039356;28;45411;-64
2023/09/15 03:38:06;;;;;;;;;8.00;7.50;;;;;20.51;46.87;101109.34;5039767;28;45236;-64
2023/09/15 03:40:32;;;;;;;;;7.50;6.00;;;;;20.46;47.10;101102.44;5039001;28;50848;-64
2023/09/15 03:42:57;;;;;;;;;6.00;6.00;;;;;20.50;47.10;101103.13;5039467;28;45453;-64
2023/09/15 03:45:23;;;;;;;;;11.50;8.50;;;;;20.47;46.74;101105.97;5039042;28;45429;-64
2023/09/15 03:47:48;;;;;;;;;8.00;6.50;;;;;20.48;47.10;101098.81;5039513;28;45233;-64
2023/09/15 03:50:19;;;;;;;;;6.50;6.00;;;;;20.48;47.28;101102.38;5039040;28;49264;-64
2023/09/15 03:52:45;;;;;;;;;9.00;7.25;;;;;20.49;47.05;101097.88;5039262;28;46592;-64
2023/09/15 03:55:11;;;;;;;;;7.75;6.50;;;;;20.44;46.79;101084.78;5060625;28;45288;-64
2023/09/15 03:57:37;;;;;;;;;6.00;6.00;;;;;20.47;47.00;101097.97;5062948;28;45956;-64
2023/09/15 04:00:04;;;;;;;;;7.00;7.00;;;;;20.46;46.96;101098.91;5062812;28;45323;-64
2023/09/15 04:02:30;;;;;;;;;10.75;8.00;;;;;20.46;46.78;101097.13;5062724;28;46851;-64
2023/09/15 04:04:55;;;;;;;;;6.50;6.50;;;;;20.43;47.05;101083.06;5062580;28;45412;-64
2023/09/15 04:07:20;;;;;;;;;6.25;6.25;;;;;20.42;46.64;101084.84;5063835;28;48045;-64
2023/09/15 04:09:46;;;;;;;;;6.75;6.75;;;;;20.41;47.06;101088.44;5067224;27;45442;-64
2023/09/15 04:12:11;;;;;;;;;6.75;6.00;;;;;20.42;47.13;101089.31;5062583;28;46334;-64
2023/09/15 04:14:36;;;;;;;;;13.25;13.25;;;;;20.40;46.87;101085.88;5062285;28;48286;-64
2023/09/15 04:17:03;;;;;;;;;11.00;9.50;;;;;20.38;47.08;101080.59;5062802;28;45284;-64
2023/09/15 04:19:29;;;;;;;;;8.25;6.25;;;;;20.39;46.89;101082.34;5062473;28;45450;-64
2023/09/15 04:21:55;;;;;;;;;8.25;7.75;;;;;20.38;47.60;101074.41;5062640;28;46168;-64
2023/09/15 04:24:20;;;;;;;;;8.25;7.50;;;;;20.36;47.49;101070.94;5062390;28;45424;-64
2023/09/15 04:26:45;;;;;;;;;9.00;7.00;;;;;20.39;47.29;101073.44;5062545;28;45405;-64
2023/09/15 04:29:11;;;;;;;;;5.25;5.25;;;;;20.38;47.20;101067.25;5062320;28;45457;-64
2023/09/15 04:31:37;;;;;;;;;7.75;7.00;;;;;20.34;47.20;101065.69;5062203;28;47697;-64
2023/09/15 04:34:03;;;;;;;;;9.25;8.00;;;;;20.37;47.32;101072.69;5062391;28;45469;-64
2023/09/15 04:36:29;;;;;;;;;8.75;7.75;;;;;20.34;47.15;101068.38;5062344;28;45364;-64
2023/09/15 04:38:54;;;;;;;;;5.75;5.75;;;;;20.32;47.33;101075.56;5062348;28;45259;-64
2023/09/15 04:41:20;;;;;;;;;7.00;6.75;;;;;20.32;47.58;101075.56;5060789;28;46833;-66
2023/09/15 04:43:45;;;;;;;;;10.25;9.50;;;;;20.29;47.54;101062.41;5062056;28;45179;-64
2023/09/15 04:46:10;;;;;;;;;7.50;6.25;;;;;20.28;47.32;101060.66;5060798;28;45199;-64
2023/09/15 04:48:36;;;;;;;;;8.00;7.75;;;;;20.27;47.27;101062.44;5062064;28;45228;-64
2023/09/15 04:51:01;;;;;;;;;7.75;7.75;;;;;20.26;47.53;101054.53;5062053;28;45346;-64
2023/09/15 04:53:26;;;;;;;;;7.75;7.75;;;;;20.23;47.67;101050.22;5060495;28;45423;-64
2023/09/15 04:55:52;;;;;;;;;8.75;7.50;;;;;20.25;47.09;101056.34;5060137;28;55818;-64
2023/09/15 04:58:17;;;;;;;;;7.00;6.75;;;;;20.25;47.16;101053.69;5061729;28;45933;-64
2023/09/15 05:00:42;;;;;;;;;6.00;6.00;;;;;20.24;47.35;101040.41;5061799;28;45362;-64
2023/09/15 05:03:08;;;;;;;;;5.50;5.50;;;;;20.21;47.67;101040.56;5061720;28;45361;-64
2023/09/15 05:05:34;;;;;;;;;7.00;6.00;;;;;20.22;47.50;101050.28;5061293;28;45426;-64
2023/09/15 05:07:59;;;;;;;;;6.75;5.75;;;;;20.21;47.68;101052.09;5065134;28;45400;-64
2023/09/15 05:10:25;;;;;;;;;7.50;6.00;;;;;20.20;47.53;101054.84;5049617;28;46052;-64
2023/09/15 05:12:50;;;;;;;;;10.00;8.00;;;;;20.17;47.44;101053.19;5061640;28;45295;-66
2023/09/15 05:15:15;;;;;;;;;11.50;10.00;;;;;20.18;47.38;101062.91;5061719;28;45401;-63
2023/09/15 05:17:41;;;;;;;;;7.25;5.75;;;;;20.15;47.23;101068.41;5059995;28;50224;-64
2023/09/15 05:20:07;;;;;;;;;10.25;8.00;;;;;20.15;47.86;101076.44;5061823;28;45519;-64
2023/09/15 05:22:32;;;;;;;;;8.50;7.25;;;;;20.13;47.75;101073.81;5060366;28;45195;-64
2023/09/15 05:24:58;;;;;;;;;9.50;7.50;;;;;20.08;47.38;101061.66;5061552;28;45263;-64
2023/09/15 05:27:23;;;;;;;;;9.25;9.25;;;;;20.13;47.39;101080.97;5060102;28;45553;-64
2023/09/15 05:29:50;;;;;;;;;7.00;7.00;;;;;20.12;47.83;101074.78;5061365;28;46484;-64
2023/09/15 05:32:16;;;;;;;;;10.50;8.00;;;;;20.10;47.75;101073.09;5061284;28;45185;-64
2023/09/15 05:34:41;;;;;;;;;9.00;7.00;;;;;20.08;47.92;101072.31;5061392;28;45212;-64
2023/09/15 05:37:07;;;;;;;;;6.00;5.75;;;;;20.08;47.62;101075.84;5076229;28;57622;-64
2023/09/15 05:39:32;;;;;;;;;9.25;7.00;;;;;20.06;47.92;101069.75;5061296;28;47083;-64
2023/09/15 05:41:57;;;;;;;;;8.50;8.50;;;;;20.06;47.53;101069.75;5060753;28;52764;-64
2023/09/15 05:44:23;;;;;;;;;9.75;7.00;;;;;20.07;47.90;101068.78;5059910;28;45353;-63
2023/09/15 05:46:48;;;;;;;;;6.25;6.00;;;;;20.05;47.84;101073.34;5061016;28;45362;-65
2023/09/15 05:49:13;;;;;;;;;12.00;8.75;;;;;20.05;48.01;101067.13;5060950;28;45911;-64
2023/09/15 05:51:39;;;;;;;;;7.75;7.75;;;;;20.04;48.08;101071.59;5060914;28;45359;-64
2023/09/15 05:54:04;;;;;;;;;5.50;5.50;;;;;20.03;47.82;101067.19;5061390;28;45417;-63
2023/09/15 05:56:30;;;;;;;;;7.25;7.25;;;;;20.03;48.04;101063.69;5060776;28;45324;-64
2023/09/15 05:58:55;;;;;;;;;5.25;5.25;;;;;20.03;47.69;101072.53;5061130;28;45810;-64
2023/09/15 06:01:21;;;;;;;;;10.00;7.50;;;;;20.02;47.71;101068.13;5060716;28;45345;-64
2023/09/15 06:03:48;;;;;;;;;36.75;32.50;;;;;19.91;47.95;101044.69;5059703;28;45354;-64
2023/09/15 06:06:14;;;;;;;;;42.50;35.75;;;;;20.00;47.80;101067.38;5059281;28;45434;-63
2023/09/15 06:08:40;;;;;;;;;47.00;37.50;;;;;20.01;47.76;101068.22;5064464;28;46332;-63
2023/09/15 06:11:06;;;;;;;;;26.75;24.50;;;;;20.02;47.78;101070.81;5060612;28;45259;-63
2023/09/15 06:13:33;;;;;;;;;16.25;13.75;;;;;20.02;47.70;101073.47;5061079;28;45362;-63
2023/09/15 06:15:58;;;;;;;;;9.00;7.75;;;;;20.03;48.13;101067.19;5075956;28;45417;-63
2023/09/15 06:18:24;;;;;;;;;10.25;9.25;;;;;20.03;48.11;101064.53;5060062;28;46388;-63
2023/09/15 06:20:49;;;;;;;;;75.33;59.00;;;;;20.04;48.02;101068.94;5059460;28;45316;-64
2023/09/15 06:23:14;;;;;;;;;44.00;35.00;;;;;20.03;47.65;101071.69;5060805;28;45358;-65
2023/09/15 06:25:40;;;;;;;;;9.50;9.00;;;;;20.05;48.10;101073.34;5060441;28;45210;-63
2023/09/15 06:28:06;;;;;;;;;9.50;9.50;;;;;20.05;47.91;101072.44;5060399;28;45523;-64
2023/09/15 06:30:31;;;;;;;;;12.75;11.50;;;;;20.05;48.15;101062.66;5060320;28;45466;-63
2023/09/15 06:32:57;;;;;;;;;10.75;9.50;;;;;20.08;48.48;101061.66;5059311;28;45277;-64
2023/09/15 06:35:24;;;;;;;;;11.50;10.50;;;;;20.11;48.33;101067.72;5060380;28;45386;-64
2023/09/15 06:37:49;;;;;;;;;9.50;9.25;;;;;20.12;48.47;101068.56;5060248;28;46325;-64
2023/09/15 06:40:15;;;;;;;;;9.25;8.00;;;;;20.12;47.96;101068.56;5060187;28;45374;-63
2023/09/15 06:42:40;;;;;;;;;13.25;10.75;;;;;20.13;48.04;101063.13;5060517;28;45301;-64
2023/09/15 06:45:06;;;;;;;;;10.00;8.00;;;;;20.13;48.16;101059.63;5075547;28;45477;-63
2023/09/15 06:47:31;;;;;;;;;10.00;8.00;;;;;20.13;48.19;101062.28;5060064;28;45210;-63
2023/09/15 06:49:57;;;;;;;;;10.00;8.50;;;;;20.14;48.11;101059.53;5060252;28;45438;-64
2023/09/15 06:52:22;;;;;;;;;9.50;9.50;;;;;20.16;48.56;101062.13;5060204;28;45418;-63
2023/09/15 06:54:47;;;;;;;;;10.25;9.75;;;;;20.17;48.08;101060.34;5060156;28;45269;-64
2023/09/15 06:57:13;;;;;;;;;9.50;9.25;;;;;20.20;48.41;101070.84;5058411;28;47362;-64
2023/09/15 06:59:38;;;;;;;;;12.75;10.75;;;;;20.20;48.32;101063.72;5059799;28;49095;-63
2023/09/15 07:02:03;;;;;;;;;11.75;11.00;;;;;20.21;48.10;101064.56;5060009;28;45486;-63
2023/09/15 07:04:29;;;;;;;;;12.00;11.25;;;;;20.21;48.10;101062.75;5059952;28;45398;-64
2023/09/15 07:06:55;;;;;;;;;12.00;9.50;;;;;20.24;48.11;101067.09;5059517;28;45917;-64
2023/09/15 07:09:22;;;;;;;;;6.75;5.25;;;;;20.22;48.67;101061.81;5063768;28;45348;-63
2023/09/15 07:11:47;;;;;;;;;9.50;9.50;;;;;20.25;48.47;101059.00;5059860;28;45296;-63
2023/09/15 07:14:12;;;;;;;;;13.75;12.00;;;;;20.28;48.57;101066.84;5059704;28;45235;-64
2023/09/15 07:16:38;;;;;;;;;13.75;10.00;;;;;20.27;48.35;101062.44;5075239;28;49033;-64
2023/09/15 07:19:03;;;;;;;;;11.75;11.75;;;;;20.28;48.30;101055.34;5059845;28;46661;-64
2023/09/15 07:21:28;;;;;;;;;9.75;9.75;;;;;20.32;48.69;101061.38;5059787;28;45288;-64
2023/09/15 07:23:55;;;;;;;;;12.25;9.25;;;;;20.32;48.19;101056.91;5059758;28;49293;-64
2023/09/15 07:26:20;;;;;;;;;11.00;9.50;;;;;20.35;48.45;101059.44;5058085;28;47117;-64
2023/09/15 07:28:45;;;;;;;;;10.75;10.25;;;;;20.36;48.42;101055.78;5059543;28;45258;-64
2023/09/15 07:31:11;;;;;;;;;11.00;11.00;;;;;20.36;48.66;101047.78;5062627;28;45625;-64
2023/09/15 07:33:36;;;;;;;;;8.25;8.00;;;;;20.40;48.51;101057.38;5063444;28;45308;-64
2023/09/15 07:36:04;;;;;;;;;11.25;11.00;;;;;20.39;48.73;101047.66;5061851;28;47191;-64
2023/09/15 07:38:31;;;;;;;;;11.50;8.75;;;;;20.41;48.74;101052.91;5063110;28;45392;-64
2023/09/15 07:40:56;;;;;;;;;10.25;9.25;;;;;20.38;48.53;101045.06;5063265;28;45384;-64
2023/09/15 07:43:22;;;;;;;;;9.25;8.25;;;;;20.36;48.49;101039.78;5062995;28;45199;-64
2023/09/15 07:45:48;;;;;;;;;9.50;9.00;;;;;20.41;48.74;101047.56;5061331;28;48213;-64
2023/09/15 07:48:14;;;;;;;;;12.00;9.25;;;;;20.46;48.44;101051.75;5063168;28;45431;-64
2023/09/15 07:50:39;;;;;;;;;9.50;9.00;;;;;20.47;48.47;101047.25;5062893;28;45467;-64
2023/09/15 07:53:05;;;;;;;;;9.50;9.00;;;;;20.44;48.09;101032.25;5062922;28;45244;-64
2023/09/15 07:55:30;;;;;;;;;6.75;5.50;;;;;20.50;48.44;101032.88;5062502;28;46206;-64
2023/09/15 07:57:56;;;;;;;;;9.00;9.00;;;;;20.51;48.53;101032.78;5063032;28;45216;-64
2023/09/15 08:00:23;;;;;;;;;11.25;11.25;;;;;20.46;48.58;101022.38;5062698;28;45573;-64
2023/09/15 08:02:48;;;;;;;;;11.00;9.75;;;;;20.54;48.62;101026.44;5062778;28;45342;-64
2023/09/15 08:05:13;;;;;;;;;8.00;8.00;;;;;20.55;48.54;101018.38;5062313;28;45288;-64
2023/09/15 08:07:40;;;;;;;;;10.50;10.00;;;;;20.59;48.92;101024.38;5066850;28;45364;-64
2023/09/15 08:10:06;;;;;;;;;8.75;8.00;;;;;20.61;48.93;101018.03;5062028;27;45477;-64
2023/09/15 08:12:31;;;;;;;;;9.50;8.25;;;;;20.67;49.00;101030.22;5062668;28;45288;-64
2023/09/15 08:14:57;;;;;;;;;9.75;8.00;;;;;20.68;48.96;101028.38;5060772;28;47265;-64
2023/09/15 08:17:23;;;;;;;;;9.75;7.50;;;;;20.71;48.69;101010.44;5062777;28;45365;-64
2023/09/15 08:19:48;;;;;;;;;11.25;8.75;;;;;20.72;48.53;101014.84;5062291;28;45317;-64
2023/09/15 08:22:15;;;;;;;;;9.00;7.00;;;;;20.80;48.96;101021.59;5062659;28;45407;-64
2023/09/15 08:24:41;;;;;;;;;11.25;8.75;;;;;20.86;48.62;101018.59;5061047;28;47138;-64
2023/09/15 08:27:06;;;;;;;;;7.25;7.00;;;;;20.89;48.97;101016.63;5062213;28;45217;-64
2023/09/15 08:29:31;;;;;;;;;10.00;10.00;;;;;20.93;49.24;101017.34;5077702;28;45385;-64
2023/09/15 08:31:57;;;;;;;;;7.00;7.00;;;;;20.99;49.11;101016.13;5062494;28;45395;-64
2023/09/15 08:34:22;;;;;;;;;7.50;7.50;;;;;21.04;48.69;101017.63;5062074;28;48661;-64
2023/09/15 08:36:47;;;;;;;;;7.00;7.00;;;;;21.09;48.47;101026.25;5062442;28;45670;-64
2023/09/15 08:39:14;;;;;;;;;8.25;7.75;;;;;21.12;48.68;101022.53;5062345;28;45512;-64
2023/09/15 08:41:47;;;;;;;;;8.00;7.00;;;;;21.20;49.18;101033.66;5062062;28;45298;-64
2023/09/15 08:44:16;;;;;;;;;6.75;6.75;;;;;21.24;48.50;101037.91;5061752;28;46203;-64
2023/09/15 08:46:43;;;;;;;;;8.00;8.00;;;;;21.32;48.55;101041.97;5062138;28;45502;-64
2023/09/15 08:49:09;;;;;;;;;7.25;7.25;;;;;21.36;48.73;101041.72;5061893;28;45174;-64
2023/09/15 08:51:36;;;;;;;;;9.25;7.50;;;;;21.43;48.56;101044.91;5062027;28;45227;-64
2023/09/15 08:54:02;;;;;;;;;8.75;6.25;;;;;21.50;49.02;101035.59;5061659;28;45273;-64
2023/09/15 08:56:28;;;;;;;;;7.50;7.50;;;;;21.49;48.87;101023.19;5061835;28;45343;-63
2023/09/15 08:58:54;;;;;;;;;9.00;7.00;;;;;21.65;48.81;101039.28;5062016;28;45430;-64
2023/09/15 09:01:19;;;;;;;;;7.25;6.25;;;;;21.66;48.92;101021.41;5061742;28;45249;-64
2023/09/15 09:03:45;;;;;;;;;10.50;8.00;;;;;21.78;48.82;101026.06;5061823;28;46601;-64
2023/09/15 09:06:12;;;;;;;;;10.25;9.25;;;;;21.87;49.02;101019.31;5060366;28;45182;-64
2023/09/15 09:08:44;;;;;;;;;9.25;7.00;;;;;21.98;48.67;101027.59;5066156;28;45181;-64
2023/09/15 09:11:10;;;;;;;;;8.00;7.00;;;;;22.06;48.65;101030.69;5061366;28;45374;-64
2023/09/15 09:13:36;;;;;;;;;9.25;8.50;;;;;22.16;48.82;101030.16;5060717;28;46894;-64
2023/09/15 09:16:05;;;;;;;;;10.00;8.00;;;;;22.24;48.74;101020.72;5061484;28;45352;-64
2023/09/15 09:18:31;;;;;;;;;8.00;7.00;;;;;22.36;49.12;101011.13;5061990;28;45464;-64
2023/09/15 09:20:57;;;;;;;;;5.00;5.00;;;;;22.48;49.36;101022.09;5061650;28;45492;-63
2023/09/15 09:23:22;;;;;;;;;7.75;6.75;;;;;22.57;48.53;101021.50;5061473;28;46155;-64
2023/09/15 09:25:47;;;;;;;;;6.50;6.50;;;;;22.67;48.61;101009.28;5061337;28;45477;-64
2023/09/15 09:28:14;;;;;;;;;8.00;7.00;;;;;22.82;48.79;101020.03;5061773;28;45308;-64
2023/09/15 09:30:40;;;;;;;;;12.00;12.00;;;;;22.94;49.04;101008.53;5061096;28;45335;-64
2023/09/15 09:33:08;;;;;;;;;8.00;8.00;;;;;23.07;48.87;101014.00;5061273;28;46120;-64
2023/09/15 09:35:34;;;;;;;;;7.50;7.50;;;;;23.24;48.91;101012.13;5061142;28;45221;-64
2023/09/15 09:38:01;;;;;;;;;15.25;13.25;;;;;23.42;48.63;101015.44;5061523;28;45478;-64
2023/09/15 09:40:26;;;;;;;;;7.00;6.25;;;;;23.59;49.09;101014.34;5060009;28;45458;-64
2023/09/15 09:42:54;;;;;;;;;8.25;6.25;;;;;23.81;48.96;101011.09;5061240;28;45317;-64
2023/09/15 09:45:30;;;;;;;;;7.50;6.75;;;;;24.03;49.06;101010.59;5060996;28;45256;-64
2023/09/15 09:47:58;;;;;;;;;7.00;7.00;;;;;24.22;48.66;101004.84;5061334;28;45311;-64
2023/09/15 09:50:23;;;;;;;;;6.00;5.75;;;;;24.41;48.36;101001.75;5060979;28;45399;-64
2023/09/15 09:52:50;;;;;;;;;8.75;7.50;;;;;24.60;48.56;101003.19;5060071;28;46148;-64
2023/09/15 09:55:15;;;;;;;;;10.25;7.50;;;;;24.76;49.01;100998.47;5060936;28;45410;-64
2023/09/15 09:57:41;;;;;;;;;6.50;6.50;;;;;24.93;48.45;101000.00;5060800;28;51943;-65
2023/09/15 10:00:11;;;;;;;;;6.00;6.00;;;;;25.12;48.54;101006.75;5060894;28;45204;-64
2023/09/15 10:02:40;;;;;;;;;7.75;6.50;;;;;25.26;47.78;101009.28;5060861;28;46254;-65
2023/09/15 10:05:06;;;;;;;;;7.50;6.50;;;;;25.41;47.61;101004.66;5058681;28;45249;-65
2023/09/15 10:07:32;;;;;;;;;9.00;7.50;;;;;25.54;47.91;100996.56;5063990;28;45287;-65
2023/09/15 10:09:58;;;;;;;;;8.50;6.00;;;;;25.66;47.92;100994.81;5063841;28;45407;-65
2023/09/15 10:12:24;;;;;;;;;7.50;7.25;;;;;25.79;47.69;100992.91;5060727;28;45300;-65
2023/09/15 10:14:51;;;;;;;;;8.50;8.00;;;;;25.95;47.73;100986.38;5060445;28;45351;-65
2023/09/15 10:17:18;;;;;;;;;7.50;7.50;;;;;26.09;47.34;100985.38;5060977;28;45314;-64
2023/09/15 10:19:46;;;;;;;;;7.00;6.50;;;;;26.21;47.34;100992.50;5060515;28;45189;-65
2023/09/15 10:22:12;;;;;;;;;6.50;6.50;;;;;26.32;47.04;100983.59;5059958;28;45204;-65
2023/09/15 10:24:43;;;;;;;;;6.00;4.00;;;;;26.46;47.24;100985.22;5060405;28;45355;-65
2023/09/15 10:27:08;;;;;;;;;6.75;6.75;;;;;26.58;46.75;100984.25;5060091;28;45480;-65
2023/09/15 10:29:33;;;;;;;;;7.25;7.25;;;;;26.71;46.30;100980.59;5060114;28;45428;-65
2023/09/15 10:32:03;;;;;;;;;5.00;5.00;;;;;26.82;46.64;100969.84;5060708;28;45403;-65
2023/09/15 10:34:29;;;;;;;;;6.25;6.25;;;;;26.93;46.41;100960.94;5060388;28;45314;-64
2023/09/15 10:36:59;;;;;;;;;7.00;6.00;;;;;27.08;46.62;100961.50;5060412;28;45281;-64
2023/09/15 10:39:35;;;;;;;;;5.50;5.50;;;;;27.29;46.30;100966.16;5058937;28;45491;-65
2023/09/15 10:42:08;;;;;;;;;7.50;6.00;;;;;27.48;46.10;100954.72;5060104;28;45517;-64
2023/09/15 10:44:34;;;;;;;;;6.50;5.75;;;;;27.68;46.34;100953.06;5058750;28;45387;-64
2023/09/15 10:47:00;;;;;;;;;10.00;5.25;;;;;27.93;45.89;100957.25;5060178;28;45432;-65
2023/09/15 10:49:25;;;;;;;;;6.50;6.00;;;;;28.16;46.33;100940.97;5060365;28;45471;-65
2023/09/15 10:51:58;;;;;;;;;6.00;5.25;;;;;28.45;45.86;100943.88;5058681;28;47341;-65
2023/09/15 10:54:31;;;;;;;;;6.00;5.00;;;;;28.77;45.79;100936.66;5057754;28;45365;-65
2023/09/15 10:56:58;;;;;;;;;5.75;5.25;;;;;29.08;45.71;100937.47;5059957;28;45485;-65
2023/09/15 10:59:25;;;;;;;;;4.00;4.00;;;;;29.43;45.82;100938.84;5059992;28;45240;-64
2023/09/15 11:01:50;;;;;;;;;5.50;5.25;;;;;29.77;45.75;100935.75;5059833;28;45278;-64
2023/09/15 11:04:22;;;;;;;;;5.75;4.75;;;;;30.16;45.47;100932.16;5060133;28;45235;-65
2023/09/15 11:06:52;;;;;;;;;5.50;5.50;;;;;30.59;45.23;100938.06;5058807;28;45394;-65
2023/09/15 11:09:19;;;;;;;;;5.75;5.00;;;;;30.99;45.48;100922.50;5065345;28;45449;-65
2023/09/15 11:11:49;;;;;;;;;5.25;3.00;;;;;31.41;45.01;100924.72;5058283;28;46147;-65
2023/09/15 11:14:16;;;;;;;;;5.00;4.25;;;;;31.82;44.64;100922.38;5059658;28;45439;-65
2023/09/15 11:16:50;;;;;;;;;7.75;7.00;;;;;32.22;44.52;100909.31;5059913;28;45296;-64
2023/09/15 11:19:22;;;;;;;;;4.00;4.00;;;;;32.67;44.18;100915.50;5059749;28;45235;-64